UHHH/KHV METAR and TAF weather

Enter ICAO airport designator
Station Type Date Time Source
UHHH METAR 2019/08/24 06:30 UTC NOAA

UHHH 240630Z 03005MPS 010V070 9999 SCT036 19/11 Q1010 R05R/090060 NOSIG RMK QFE751/1002


Station Type Date Time Source
UHHH Decoded METAR 2019/08/24 06:30 UTC NOAA

Station name not available
Aug 24, 2019 - 02:30 AM EDT / 2019.08.24 0630 UTC
Wind: from the NNE (030 degrees) at 11 MPH (10 KT) (direction variable):0
Visibility: greater than 7 mile(s):0
Sky conditions: partly cloudy
Temperature: 66 F (19 C)
Dew Point: 51 F (11 C)
Relative Humidity: 59%
Pressure (altimeter): 29.83 in. Hg (1010 hPa)
ob: UHHH 240630Z 03005MPS 010V070 9999 SCT036 19/11 Q1010 R05R/090060 NOSIG RMK QFE751/1002
cycle: 6

Station Type Date Time Source
UHHH TAF 2019/08/24 06:21 UTC NOAA

TAF TAF UHHH 240500Z 2406/2512 04005MPS 9999 SCT025CB
BECMG 2409/2411 36003MPS
FM250000 03003MPS 9999 SCT025CB
TEMPO 2500/2506 5000 -SHRA SCT011 SCT020CB

Example: see airport list